createdAt,value
2019-04-20T00:01:32.632Z,9.57
2019-04-20T00:03:58.655Z,8.00
2019-04-20T00:06:25.084Z,6.67
2019-04-20T00:08:58.739Z,9.93
2019-04-20T00:11:27.512Z,7.07
2019-04-20T00:13:54.893Z,9.33
2019-04-20T00:16:14.951Z,9.30
2019-04-20T00:18:46.799Z,8.67
2019-04-20T00:21:27.209Z,8.33
2019-04-20T00:23:54.791Z,7.13
2019-04-20T00:26:43.917Z,7.83
2019-04-20T00:29:06.901Z,6.60
2019-04-20T00:31:39.248Z,7.20
2019-04-20T00:33:57.505Z,8.00
2019-04-20T00:36:14.356Z,6.40
2019-04-20T00:38:46.360Z,8.23
2019-04-20T00:41:12.030Z,6.33
2019-04-20T00:43:39.135Z,5.20
2019-04-20T00:46:09.213Z,5.57
2019-04-20T00:48:43.099Z,7.43
2019-04-20T00:51:21.384Z,5.87
2019-04-20T00:53:34.256Z,6.60
2019-04-20T00:55:57.055Z,7.40
2019-04-20T00:58:28.902Z,9.43
2019-04-20T01:01:24.815Z,6.57
2019-04-20T01:03:37.721Z,8.80
2019-04-20T01:06:12.335Z,7.23
2019-04-20T01:08:25.399Z,5.90
2019-04-20T01:10:55.726Z,6.80
2019-04-20T01:13:20.918Z,6.80
2019-04-20T01:15:55.374Z,9.10
2019-04-20T01:18:15.304Z,8.23
2019-04-20T01:20:41.315Z,7.10
2019-04-20T01:23:12.460Z,7.80
2019-04-20T01:25:39.138Z,7.27
2019-04-20T01:28:17.665Z,8.23
2019-04-20T01:30:38.701Z,8.37
2019-04-20T01:33:12.508Z,8.10
2019-04-20T01:35:45.059Z,7.33
2019-04-20T01:38:12.569Z,6.93
2019-04-20T01:43:03.714Z,7.60
2019-04-20T01:45:44.064Z,8.23
2019-04-20T01:48:15.067Z,7.30
2019-04-20T01:51:14.110Z,7.77
2019-04-20T01:54:12.010Z,8.13
2019-04-20T01:56:53.340Z,11.47
2019-04-20T02:02:24.939Z,6.97
2019-04-20T02:05:08.771Z,7.40
2019-04-20T02:07:40.018Z,7.17
2019-04-20T02:10:34.997Z,6.50
2019-04-20T02:13:15.287Z,8.47
2019-04-20T02:15:58.953Z,7.47
2019-04-20T02:18:35.082Z,5.70
2019-04-20T02:21:15.169Z,6.93
2019-04-20T02:23:40.880Z,7.23
2019-04-20T02:26:25.775Z,8.43
2019-04-20T02:29:35.052Z,9.27
2019-04-20T02:39:19.042Z,6.20
2019-04-20T02:41:47.529Z,11.33
2019-04-20T02:47:30.754Z,8.47
2019-04-20T02:50:05.602Z,6.83
2019-04-20T02:58:05.213Z,6.43
2019-04-20T03:00:42.654Z,9.13
2019-04-20T03:06:19.503Z,49.57
2019-04-20T03:08:56.603Z,9.53
2019-04-20T03:11:59.361Z,9.23
2019-04-20T03:14:19.075Z,8.40
2019-04-20T03:17:39.069Z,8.27
2019-04-20T03:20:00.681Z,8.80
2019-04-20T03:26:16.192Z,9.60
2019-04-20T03:35:51.748Z,35.53
2019-04-20T03:38:14.220Z,12.50
2019-04-20T03:40:37.311Z,9.40
2019-04-20T03:43:22.165Z,9.53
2019-04-20T03:46:12.554Z,8.83
2019-04-20T03:48:54.742Z,10.07
2019-04-20T03:51:53.496Z,10.50
2019-04-20T04:00:22.023Z,10.57
2019-04-20T04:08:33.861Z,13.27
2019-04-20T04:11:18.898Z,14.00
2019-04-20T04:13:33.617Z,12.70
2019-04-20T04:16:10.004Z,15.50
2019-04-20T04:22:08.927Z,13.97
2019-04-20T04:27:57.040Z,20.90
2019-04-20T04:30:54.514Z,16.37
2019-04-20T04:36:07.104Z,14.20
2019-04-20T04:38:51.448Z,16.20
2019-04-20T04:41:32.048Z,19.70
2019-04-20T04:44:00.652Z,17.73
2019-04-20T04:46:16.439Z,18.20
2019-04-20T04:48:52.543Z,15.87
2019-04-20T04:55:17.496Z,16.73
2019-04-20T04:57:54.206Z,17.70
2019-04-20T05:00:34.803Z,16.53
2019-04-20T05:03:35.861Z,18.23
2019-04-20T05:06:18.611Z,19.20
2019-04-20T05:09:00.841Z,23.03
2019-04-20T05:11:44.797Z,36.70
2019-04-20T05:14:37.444Z,37.47
2019-04-20T05:21:05.903Z,38.77
2019-04-20T05:23:53.353Z,79.90
2019-04-20T05:26:53.168Z,50.60
2019-04-20T05:32:32.767Z,56.67
2019-04-20T05:35:27.205Z,52.77
2019-04-20T05:38:02.924Z,60.30
2019-04-20T05:46:42.255Z,40.47
2019-04-20T05:49:50.104Z,33.77
2019-04-20T05:52:40.238Z,32.70
2019-04-20T05:55:23.737Z,29.07
2019-04-20T05:58:10.082Z,25.47
2019-04-20T06:00:55.029Z,24.70
2019-04-20T06:06:44.361Z,22.87
2019-04-20T06:09:30.776Z,20.67
2019-04-20T06:15:18.074Z,19.03
2019-04-20T06:18:02.737Z,23.40
2019-04-20T06:21:20.047Z,17.90
2019-04-20T06:29:37.634Z,18.23
2019-04-20T06:32:20.332Z,16.07
2019-04-20T06:34:50.112Z,16.20
2019-04-20T06:37:36.231Z,17.53
2019-04-20T06:43:09.009Z,16.60
2019-04-20T06:48:42.118Z,20.13
2019-04-20T06:51:53.195Z,18.67
2019-04-20T06:54:38.465Z,14.13
2019-04-20T06:57:18.442Z,18.23
2019-04-20T07:05:31.112Z,14.37
2019-04-20T07:08:29.034Z,13.30
2019-04-20T07:10:51.390Z,13.47
2019-04-20T07:13:38.273Z,12.70
2019-04-20T07:25:26.286Z,10.23
2019-04-20T07:31:03.041Z,9.00
2019-04-20T07:33:56.927Z,11.20
2019-04-20T07:36:32.750Z,8.63
2019-04-20T07:39:13.596Z,8.37
2019-04-20T07:42:04.538Z,9.27
2019-04-20T07:44:29.878Z,8.33
2019-04-20T07:49:32.940Z,5.77
2019-04-20T07:51:48.275Z,5.90
2019-04-20T07:55:12.421Z,5.03
2019-04-20T08:06:38.108Z,6.33
2019-04-20T08:09:54.709Z,6.83
2019-04-20T08:15:34.066Z,4.10
2019-04-20T08:18:06.406Z,4.63
2019-04-20T08:20:52.428Z,5.33
2019-04-20T08:23:17.156Z,4.43
2019-04-20T08:25:43.329Z,4.13
2019-04-20T08:28:36.048Z,6.00
2019-04-20T08:37:20.797Z,4.03
2019-04-20T08:40:19.846Z,4.30
2019-04-20T08:43:05.490Z,4.20
2019-04-20T08:49:10.141Z,4.00
2019-04-20T08:51:51.249Z,4.20
2019-04-20T08:54:19.277Z,4.70
2019-04-20T08:56:39.343Z,3.57
2019-04-20T08:59:25.457Z,4.20
2019-04-20T09:01:51.620Z,4.30
2019-04-20T09:04:45.147Z,4.37
2019-04-20T09:08:02.424Z,4.10
2019-04-20T09:11:05.946Z,3.43
2019-04-20T09:13:43.249Z,4.67
2019-04-20T09:16:06.586Z,5.03
2019-04-20T09:18:54.800Z,5.30
2019-04-20T09:21:43.699Z,6.13
2019-04-20T09:24:39.944Z,4.60
2019-04-20T09:29:32.900Z,5.83
2019-04-20T09:35:48.662Z,5.07
2019-04-20T09:41:09.083Z,4.00
2019-04-20T09:43:49.367Z,4.33
2019-04-20T09:46:44.201Z,6.50
2019-04-20T09:49:15.676Z,3.97
2019-04-20T09:52:13.416Z,5.13
2019-04-20T09:55:02.730Z,5.13
2019-04-20T09:57:33.322Z,4.73
2019-04-20T10:00:48.613Z,5.03
2019-04-20T10:03:10.989Z,7.33
2019-04-20T10:05:50.136Z,5.57
2019-04-20T10:08:17.509Z,5.20
2019-04-20T10:10:51.170Z,4.90
2019-04-20T10:13:40.401Z,5.10
2019-04-20T10:16:07.941Z,4.50
2019-04-20T10:19:01.182Z,5.87
2019-04-20T10:21:41.562Z,5.87
2019-04-20T10:24:21.072Z,4.37
2019-04-20T10:26:48.249Z,7.20
2019-04-20T10:29:35.569Z,5.00
2019-04-20T10:32:16.034Z,6.53
2019-04-20T10:34:44.074Z,7.00
2019-04-20T10:37:39.763Z,6.83
2019-04-20T10:40:35.782Z,5.17
2019-04-20T10:45:42.281Z,5.97
2019-04-20T10:50:49.354Z,5.40
2019-04-20T10:53:36.610Z,6.27
2019-04-20T10:56:09.840Z,8.70
2019-04-20T10:58:57.968Z,6.00
2019-04-20T11:04:48.531Z,6.80
2019-04-20T11:07:42.154Z,6.50
2019-04-20T11:10:27.392Z,5.70
2019-04-20T11:12:50.524Z,6.07
2019-04-20T11:15:24.372Z,5.60
2019-04-20T11:21:30.325Z,10.50
2019-04-20T11:24:10.134Z,9.27
2019-04-20T11:26:38.264Z,8.97
2019-04-20T11:29:30.313Z,6.37
2019-04-20T11:31:58.134Z,9.70
2019-04-20T11:34:51.322Z,7.47
2019-04-20T11:37:31.133Z,6.63
2019-04-20T11:39:57.260Z,5.20
2019-04-20T11:42:43.782Z,9.20
2019-04-20T11:45:33.008Z,8.43
2019-04-20T11:48:27.449Z,6.93
2019-04-20T11:51:29.691Z,5.67
2019-04-20T11:53:56.410Z,9.27
2019-04-20T11:57:19.597Z,8.47
2019-04-20T12:00:08.755Z,3.90
2019-04-20T12:06:17.439Z,6.83
2019-04-20T12:08:56.999Z,3.87
2019-04-20T12:11:47.543Z,4.80
2019-04-20T12:14:04.736Z,5.17
2019-04-20T12:16:39.611Z,4.00
2019-04-20T12:19:27.022Z,7.20
2019-04-20T12:22:07.618Z,6.20
2019-04-20T12:24:47.890Z,8.40
2019-04-20T12:27:27.657Z,7.80
2019-04-20T12:33:17.779Z,6.63
2019-04-20T12:35:58.255Z,3.47
2019-04-20T12:38:39.150Z,3.20
2019-04-20T12:41:31.637Z,4.10
2019-04-20T12:43:59.544Z,4.17
2019-04-20T12:46:26.786Z,4.27
2019-04-20T12:49:20.513Z,4.03
2019-04-20T12:52:05.107Z,4.30
2019-04-20T12:54:45.127Z,5.30
2019-04-20T13:00:52.142Z,3.50
2019-04-20T13:03:19.395Z,4.00
2019-04-20T13:06:13.833Z,3.00
2019-04-20T13:08:52.328Z,2.10
2019-04-20T13:11:51.640Z,2.50
2019-04-20T13:15:16.175Z,2.00
2019-04-20T13:18:03.606Z,2.57
2019-04-20T13:20:30.083Z,4.33
2019-04-20T13:23:24.781Z,2.20
2019-04-20T13:26:25.052Z,2.23
2019-04-20T13:28:51.281Z,3.13
2019-04-20T13:31:37.933Z,2.77
2019-04-20T13:34:26.401Z,2.80
2019-04-20T13:37:06.410Z,3.80
2019-04-20T13:39:46.854Z,3.07
2019-04-20T13:44:54.829Z,2.80
2019-04-20T13:47:41.108Z,4.13
2019-04-20T13:53:29.706Z,3.70
2019-04-20T13:59:25.838Z,2.93
2019-04-20T14:02:13.057Z,3.67
2019-04-20T14:08:09.683Z,4.80
2019-04-20T14:11:17.727Z,3.80
2019-04-20T14:14:06.282Z,3.77
2019-04-20T14:16:39.006Z,4.83
2019-04-20T14:19:31.924Z,3.20
2019-04-20T14:22:13.122Z,4.60
2019-04-20T14:24:40.356Z,3.57
2019-04-20T14:27:15.001Z,4.20
2019-04-20T14:30:03.352Z,5.60
2019-04-20T14:32:43.058Z,3.50
2019-04-20T14:38:10.527Z,3.93
2019-04-20T14:40:58.057Z,3.57
2019-04-20T14:43:24.930Z,3.70
2019-04-20T14:46:18.806Z,5.33
2019-04-20T14:48:45.006Z,5.57
2019-04-20T14:51:31.968Z,4.50
2019-04-20T14:54:11.870Z,3.90
2019-04-20T14:56:37.888Z,5.07
2019-04-20T15:02:28.020Z,7.07
2019-04-20T15:07:56.465Z,3.97
2019-04-20T15:10:22.740Z,4.43
2019-04-20T15:13:01.041Z,3.50
2019-04-20T15:15:48.502Z,4.10
2019-04-20T15:18:31.431Z,5.40
2019-04-20T15:21:19.576Z,3.47
2019-04-20T15:23:53.281Z,3.00
2019-04-20T15:26:40.578Z,3.07
2019-04-20T15:29:20.153Z,2.53
2019-04-20T15:32:00.014Z,2.50
2019-04-20T15:34:39.232Z,2.47
2019-04-20T15:37:18.397Z,2.03
2019-04-20T15:43:12.431Z,2.30
2019-04-20T15:45:41.138Z,2.63
2019-04-20T15:48:28.117Z,3.07
2019-04-20T15:50:54.279Z,3.63
2019-04-20T15:53:41.683Z,3.40
2019-04-20T15:56:29.132Z,3.00
2019-04-20T15:59:10.428Z,2.70
2019-04-20T16:01:51.717Z,3.87
2019-04-20T16:04:41.189Z,2.30
2019-04-20T16:10:14.948Z,2.50
2019-04-20T16:12:41.138Z,2.23
2019-04-20T16:15:27.605Z,2.30
2019-04-20T16:21:23.046Z,2.87
2019-04-20T16:24:15.021Z,2.07
2019-04-20T16:27:21.696Z,2.40
2019-04-20T16:29:47.705Z,2.47
2019-04-20T16:32:14.421Z,3.70
2019-04-20T16:35:02.774Z,3.07
2019-04-20T16:37:42.723Z,3.93
2019-04-20T16:40:23.298Z,2.43
2019-04-20T16:43:06.286Z,3.60
2019-04-20T16:45:30.608Z,2.70
2019-04-20T16:47:58.879Z,3.30
2019-04-20T16:50:24.816Z,3.27
2019-04-20T16:52:51.165Z,3.10
2019-04-20T16:55:17.184Z,2.03
2019-04-20T16:57:45.917Z,2.70
2019-04-20T17:00:13.595Z,2.43
2019-04-20T17:02:40.393Z,4.00
2019-04-20T17:05:07.281Z,2.93
2019-04-20T17:07:35.344Z,3.40
2019-04-20T17:10:02.382Z,2.90
2019-04-20T17:12:29.972Z,3.93
2019-04-20T17:14:56.202Z,2.80
2019-04-20T17:17:22.450Z,2.73
2019-04-20T17:19:49.308Z,3.20
2019-04-20T17:22:15.444Z,4.90
2019-04-20T17:24:43.024Z,3.07
2019-04-20T17:27:26.758Z,3.57
2019-04-20T17:30:01.093Z,4.60
2019-04-20T17:32:29.619Z,3.10
2019-04-20T17:35:09.996Z,2.80
2019-04-20T17:37:24.579Z,2.90
2019-04-20T17:40:31.189Z,3.53
2019-04-20T17:43:07.501Z,4.63
2019-04-20T17:46:07.965Z,4.50
2019-04-20T17:49:07.296Z,2.80
2019-04-20T17:51:34.441Z,4.70
2019-04-20T17:56:44.706Z,4.30
2019-04-20T17:59:24.318Z,3.00
2019-04-20T18:02:21.747Z,4.00
2019-04-20T18:05:27.248Z,3.50
2019-04-20T18:10:48.694Z,4.20
2019-04-20T18:13:14.273Z,4.83
2019-04-20T18:22:11.901Z,5.07
2019-04-20T18:25:18.954Z,5.50
2019-04-20T18:37:25.703Z,4.80
2019-04-20T18:39:57.466Z,6.70
2019-04-20T18:42:43.899Z,6.93
2019-04-20T18:48:30.200Z,6.27
2019-04-20T18:50:42.188Z,6.00
2019-04-20T18:53:53.465Z,8.40
2019-04-20T18:56:31.357Z,7.17
2019-04-20T18:58:59.424Z,9.03
2019-04-20T19:08:24.613Z,10.37
2019-04-20T19:11:37.546Z,16.23
2019-04-20T19:14:28.554Z,20.93
2019-04-20T19:17:29.073Z,18.50
2019-04-20T19:22:52.491Z,20.20
2019-04-20T19:25:40.965Z,20.47
2019-04-20T19:28:14.531Z,17.70
2019-04-20T19:31:25.232Z,14.30
2019-04-20T19:37:28.634Z,17.33
2019-04-20T19:40:04.015Z,11.60
2019-04-20T19:42:39.235Z,13.30
2019-04-20T19:45:27.406Z,12.03
2019-04-20T19:47:48.070Z,11.60
2019-04-20T19:51:12.887Z,9.73
2019-04-20T19:53:36.555Z,14.70
2019-04-20T19:56:03.726Z,10.93
2019-04-20T19:58:35.979Z,10.97
2019-04-20T20:01:13.647Z,11.60
2019-04-20T20:03:39.712Z,8.33
2019-04-20T20:09:32.433Z,9.07
2019-04-20T20:12:21.366Z,9.77
2019-04-20T20:14:50.926Z,10.87
2019-04-20T20:17:55.669Z,8.50
2019-04-20T20:21:00.875Z,10.07
2019-04-20T20:23:20.221Z,10.37
2019-04-20T20:26:09.029Z,10.20
2019-04-20T20:28:57.818Z,9.93
2019-04-20T20:31:47.054Z,9.80
2019-04-20T20:34:21.062Z,12.03
2019-04-20T20:36:59.782Z,11.90
2019-04-20T20:39:36.294Z,11.30
2019-04-20T20:42:12.887Z,12.33
2019-04-20T20:44:42.891Z,11.97
2019-04-20T20:47:59.014Z,12.53
2019-04-20T20:50:22.824Z,11.77
2019-04-20T20:52:46.948Z,10.63
2019-04-20T20:55:19.499Z,15.43
2019-04-20T20:58:08.599Z,10.87
2019-04-20T21:00:45.808Z,9.77
2019-04-20T21:03:19.417Z,10.73
2019-04-20T21:05:57.824Z,12.93
2019-04-20T21:11:51.983Z,14.70
2019-04-20T21:14:31.515Z,13.00
2019-04-20T21:17:15.954Z,14.53
2019-04-20T21:20:08.481Z,13.13
2019-04-20T21:22:40.314Z,13.90
2019-04-20T21:27:30.513Z,13.70
2019-04-20T21:29:59.868Z,13.50
2019-04-20T21:32:55.401Z,14.13
2019-04-20T21:39:22.063Z,11.90
2019-04-20T21:41:40.816Z,14.20
2019-04-20T21:44:19.063Z,12.13
2019-04-20T21:46:51.148Z,11.93
2019-04-20T21:49:35.948Z,14.93
2019-04-20T21:52:00.868Z,17.60
2019-04-20T21:54:48.096Z,17.77
2019-04-20T21:57:31.358Z,14.07
2019-04-20T22:03:15.514Z,15.13
2019-04-20T22:05:42.426Z,13.90
2019-04-20T22:08:51.849Z,16.20
2019-04-20T22:15:00.109Z,17.07
2019-04-20T22:18:06.807Z,18.67
2019-04-20T22:24:05.565Z,19.67
2019-04-20T22:26:54.882Z,18.53
2019-04-20T22:29:30.653Z,20.77
2019-04-20T22:32:14.860Z,20.97
2019-04-20T22:34:57.185Z,18.50
2019-04-20T22:40:31.569Z,20.43
2019-04-20T22:43:17.115Z,18.73
2019-04-20T22:45:57.137Z,25.47
2019-04-20T22:48:23.412Z,21.23
2019-04-20T22:51:12.757Z,20.53
2019-04-20T22:53:42.732Z,22.13
2019-04-20T22:56:19.750Z,20.93
2019-04-20T22:58:50.253Z,22.73
2019-04-20T23:01:19.466Z,19.93
2019-04-20T23:04:01.119Z,21.23
2019-04-20T23:06:44.633Z,25.07
2019-04-20T23:12:33.936Z,21.33
2019-04-20T23:15:28.041Z,19.37
2019-04-20T23:18:02.227Z,20.80
2019-04-20T23:20:37.466Z,21.73
2019-04-20T23:23:11.014Z,20.00
2019-04-20T23:25:43.471Z,21.80
2019-04-20T23:28:11.936Z,21.53
2019-04-20T23:30:44.464Z,21.50
2019-04-20T23:33:18.060Z,25.27
2019-04-20T23:35:56.511Z,19.63
2019-04-20T23:38:26.433Z,22.00
2019-04-20T23:41:44.675Z,20.80
2019-04-20T23:44:33.633Z,22.77
2019-04-20T23:50:38.254Z,20.23
2019-04-20T23:53:22.991Z,18.63
2019-04-20T23:55:33.934Z,19.80
2019-04-20T23:58:30.892Z,21.10
